sensor_id;sensor_type;location;lat;lon;timestamp;temperature;humidity
12967;DHT22;6548;49.996;8.238;2022-09-03T00:01:46;17.30;99.90
12967;DHT22;6548;49.996;8.238;2022-09-03T00:04:26;17.30;99.90
12967;DHT22;6548;49.996;8.238;2022-09-03T00:07:03;17.30;99.90
12967;DHT22;6548;49.996;8.238;2022-09-03T00:12:42;17.30;99.90
12967;DHT22;6548;49.996;8.238;2022-09-03T00:15:11;17.20;99.90
12967;DHT22;6548;49.996;8.238;2022-09-03T00:17:48;17.10;99.90
12967;DHT22;6548;49.996;8.238;2022-09-03T00:20:19;17.10;99.90
12967;DHT22;6548;49.996;8.238;2022-09-03T00:22:53;17.10;99.90
12967;DHT22;6548;49.996;8.238;2022-09-03T00:25:26;17.20;99.90
12967;DHT22;6548;49.996;8.238;2022-09-03T00:27:54;17.20;99.90
12967;DHT22;6548;49.996;8.238;2022-09-03T00:30:22;17.10;99.90
12967;DHT22;6548;49.996;8.238;2022-09-03T00:35:40;17.00;99.90
12967;DHT22;6548;49.996;8.238;2022-09-03T00:38:07;17.00;99.90
12967;DHT22;6548;49.996;8.238;2022-09-03T00:43:41;17.10;99.90
12967;DHT22;6548;49.996;8.238;2022-09-03T00:46:18;17.10;99.90
12967;DHT22;6548;49.996;8.238;2022-09-03T00:52:09;17.20;99.90
12967;DHT22;6548;49.996;8.238;2022-09-03T00:57:29;17.10;99.90
12967;DHT22;6548;49.996;8.238;2022-09-03T01:00:03;17.10;99.90
12967;DHT22;6548;49.996;8.238;2022-09-03T01:08:19;17.10;99.90
12967;DHT22;6548;49.996;8.238;2022-09-03T01:10:51;17.10;99.90
12967;DHT22;6548;49.996;8.238;2022-09-03T01:26:02;16.90;99.90
12967;DHT22;6548;49.996;8.238;2022-09-03T01:31:29;16.80;99.90
12967;DHT22;6548;49.996;8.238;2022-09-03T01:43:17;16.80;99.90
12967;DHT22;6548;49.996;8.238;2022-09-03T01:46:00;16.80;99.90
12967;DHT22;6548;49.996;8.238;2022-09-03T01:48:43;17.30;99.90
12967;DHT22;6548;49.996;8.238;2022-09-03T01:51:26;16.90;99.90
12967;DHT22;6548;49.996;8.238;2022-09-03T01:54:19;16.90;99.90
12967;DHT22;6548;49.996;8.238;2022-09-03T01:57:29;16.90;99.90
12967;DHT22;6548;49.996;8.238;2022-09-03T02:00:18;17.00;99.90
12967;DHT22;6548;49.996;8.238;2022-09-03T02:02:49;17.00;99.90
12967;DHT22;6548;49.996;8.238;2022-09-03T02:05:26;17.10;99.90
12967;DHT22;6548;49.996;8.238;2022-09-03T02:08:02;17.30;99.90
12967;DHT22;6548;49.996;8.238;2022-09-03T02:10:42;17.10;99.90
12967;DHT22;6548;49.996;8.238;2022-09-03T02:13:14;17.20;99.90
12967;DHT22;6548;49.996;8.238;2022-09-03T02:15:45;17.20;99.90
12967;DHT22;6548;49.996;8.238;2022-09-03T02:18:32;17.20;99.90
12967;DHT22;6548;49.996;8.238;2022-09-03T02:21:08;17.20;99.90
12967;DHT22;6548;49.996;8.238;2022-09-03T02:23:38;17.90;99.90
12967;DHT22;6548;49.996;8.238;2022-09-03T02:26:05;17.20;99.90
12967;DHT22;6548;49.996;8.238;2022-09-03T02:28:31;17.00;99.90
12967;DHT22;6548;49.996;8.238;2022-09-03T02:30:57;18.30;99.90
12967;DHT22;6548;49.996;8.238;2022-09-03T02:33:23;17.80;99.90
12967;DHT22;6548;49.996;8.238;2022-09-03T02:35:50;18.40;99.90
12967;DHT22;6548;49.996;8.238;2022-09-03T02:40:52;17.30;99.90
12967;DHT22;6548;49.996;8.238;2022-09-03T02:43:32;17.30;99.90
12967;DHT22;6548;49.996;8.238;2022-09-03T02:48:44;17.30;99.90
12967;DHT22;6548;49.996;8.238;2022-09-03T05:52:42;16.70;99.90
12967;DHT22;6548;49.996;8.238;2022-09-03T05:55:54;16.60;99.90
12967;DHT22;6548;49.996;8.238;2022-09-03T05:58:20;16.70;99.90
12967;DHT22;6548;49.996;8.238;2022-09-03T06:00:45;17.60;99.90
12967;DHT22;6548;49.996;8.238;2022-09-03T06:03:11;16.40;99.90
12967;DHT22;6548;49.996;8.238;2022-09-03T06:05:36;16.40;99.90
12967;DHT22;6548;49.996;8.238;2022-09-03T06:08:02;16.30;99.90
12967;DHT22;6548;49.996;8.238;2022-09-03T06:10:27;16.30;99.90
12967;DHT22;6548;49.996;8.238;2022-09-03T06:12:54;16.30;99.90
12967;DHT22;6548;49.996;8.238;2022-09-03T06:15:20;16.40;99.90
12967;DHT22;6548;49.996;8.238;2022-09-03T06:17:45;17.30;99.90
12967;DHT22;6548;49.996;8.238;2022-09-03T06:20:11;17.20;99.90
12967;DHT22;6548;49.996;8.238;2022-09-03T06:22:37;16.40;99.90
12967;DHT22;6548;49.996;8.238;2022-09-03T06:25:02;17.30;99.90
12967;DHT22;6548;49.996;8.238;2022-09-03T06:27:28;16.20;99.90
12967;DHT22;6548;49.996;8.238;2022-09-03T06:29:53;17.50;99.90
12967;DHT22;6548;49.996;8.238;2022-09-03T06:32:22;16.10;99.90
12967;DHT22;6548;49.996;8.238;2022-09-03T06:34:48;16.00;99.90
12967;DHT22;6548;49.996;8.238;2022-09-03T06:37:13;16.00;99.90
12967;DHT22;6548;49.996;8.238;2022-09-03T06:39:39;16.10;99.90
12967;DHT22;6548;49.996;8.238;2022-09-03T06:42:05;16.50;99.90
12967;DHT22;6548;49.996;8.238;2022-09-03T06:44:30;16.20;99.90
12967;DHT22;6548;49.996;8.238;2022-09-03T06:46:56;16.30;99.90
12967;DHT22;6548;49.996;8.238;2022-09-03T06:49:25;18.00;99.90
12967;DHT22;6548;49.996;8.238;2022-09-03T06:51:51;16.50;99.90
12967;DHT22;6548;49.996;8.238;2022-09-03T06:54:16;15.70;99.90
12967;DHT22;6548;49.996;8.238;2022-09-03T06:56:42;16.50;99.90
12967;DHT22;6548;49.996;8.238;2022-09-03T06:59:12;16.80;99.90
12967;DHT22;6548;49.996;8.238;2022-09-03T07:01:40;16.50;99.90
12967;DHT22;6548;49.996;8.238;2022-09-03T07:04:07;16.30;99.90
12967;DHT22;6548;49.996;8.238;2022-09-03T07:06:35;18.10;99.90
12967;DHT22;6548;49.996;8.238;2022-09-03T07:09:02;16.30;99.90
12967;DHT22;6548;49.996;8.238;2022-09-03T07:11:28;17.50;99.90
12967;DHT22;6548;49.996;8.238;2022-09-03T07:13:56;16.10;99.90
12967;DHT22;6548;49.996;8.238;2022-09-03T07:16:24;16.00;99.90
12967;DHT22;6548;49.996;8.238;2022-09-03T07:18:50;15.90;99.90
12967;DHT22;6548;49.996;8.238;2022-09-03T07:21:18;15.80;99.90
12967;DHT22;6548;49.996;8.238;2022-09-03T07:23:44;15.60;99.90
12967;DHT22;6548;49.996;8.238;2022-09-03T07:26:14;15.50;99.90
12967;DHT22;6548;49.996;8.238;2022-09-03T07:28:42;15.50;99.90
12967;DHT22;6548;49.996;8.238;2022-09-03T07:31:11;15.40;99.90
12967;DHT22;6548;49.996;8.238;2022-09-03T07:33:38;15.40;99.90
12967;DHT22;6548;49.996;8.238;2022-09-03T07:36:09;15.30;99.90
12967;DHT22;6548;49.996;8.238;2022-09-03T07:38:35;15.30;99.90
12967;DHT22;6548;49.996;8.238;2022-09-03T07:41:04;15.20;99.90
12967;DHT22;6548;49.996;8.238;2022-09-03T07:43:34;15.20;99.90
12967;DHT22;6548;49.996;8.238;2022-09-03T07:46:00;15.10;99.90
12967;DHT22;6548;49.996;8.238;2022-09-03T07:48:26;15.00;99.90
12967;DHT22;6548;49.996;8.238;2022-09-03T07:50:52;14.90;99.90
12967;DHT22;6548;49.996;8.238;2022-09-03T07:53:19;14.90;99.90
12967;DHT22;6548;49.996;8.238;2022-09-03T07:55:45;14.90;99.90
12967;DHT22;6548;49.996;8.238;2022-09-03T07:58:11;14.90;99.90
12967;DHT22;6548;49.996;8.238;2022-09-03T08:00:38;14.90;99.90
12967;DHT22;6548;49.996;8.238;2022-09-03T08:03:04;14.90;99.90
12967;DHT22;6548;49.996;8.238;2022-09-03T08:05:36;15.00;99.90
12967;DHT22;6548;49.996;8.238;2022-09-03T08:08:05;15.00;99.90
12967;DHT22;6548;49.996;8.238;2022-09-03T08:10:35;15.00;99.90
12967;DHT22;6548;49.996;8.238;2022-09-03T08:13:02;15.10;99.90
12967;DHT22;6548;49.996;8.238;2022-09-03T08:15:30;15.20;99.90
12967;DHT22;6548;49.996;8.238;2022-09-03T08:17:55;15.40;99.90
12967;DHT22;6548;49.996;8.238;2022-09-03T08:20:21;15.60;99.90
12967;DHT22;6548;49.996;8.238;2022-09-03T08:22:47;15.50;99.90
12967;DHT22;6548;49.996;8.238;2022-09-03T08:25:13;15.50;99.90
12967;DHT22;6548;49.996;8.238;2022-09-03T08:27:38;15.40;99.90
12967;DHT22;6548;49.996;8.238;2022-09-03T08:30:04;15.40;99.90
12967;DHT22;6548;49.996;8.238;2022-09-03T08:32:34;15.70;99.90
12967;DHT22;6548;49.996;8.238;2022-09-03T08:34:59;16.00;99.90
12967;DHT22;6548;49.996;8.238;2022-09-03T08:37:25;16.20;99.90
12967;DHT22;6548;49.996;8.238;2022-09-03T08:39:53;16.20;99.90
12967;DHT22;6548;49.996;8.238;2022-09-03T08:42:27;16.30;99.90
12967;DHT22;6548;49.996;8.238;2022-09-03T08:44:59;16.20;99.90
12967;DHT22;6548;49.996;8.238;2022-09-03T08:55:28;16.30;99.90
12967;DHT22;6548;49.996;8.238;2022-09-03T09:06:32;16.70;99.90
12967;DHT22;6548;49.996;8.238;2022-09-03T09:09:20;17.00;99.90
12967;DHT22;6548;49.996;8.238;2022-09-03T09:12:03;17.20;99.90
12967;DHT22;6548;49.996;8.238;2022-09-03T09:15:06;17.30;99.90
12967;DHT22;6548;49.996;8.238;2022-09-03T09:20:48;17.30;99.90
12967;DHT22;6548;49.996;8.238;2022-09-03T09:23:28;17.50;99.90
12967;DHT22;6548;49.996;8.238;2022-09-03T09:25:56;17.60;99.90
12967;DHT22;6548;49.996;8.238;2022-09-03T09:28:34;17.50;99.90
12967;DHT22;6548;49.996;8.238;2022-09-03T09:31:02;17.50;99.90
12967;DHT22;6548;49.996;8.238;2022-09-03T09:33:30;17.80;99.90
12967;DHT22;6548;49.996;8.238;2022-09-03T09:35:58;18.30;99.90
12967;DHT22;6548;49.996;8.238;2022-09-03T09:38:33;18.40;99.90
12967;DHT22;6548;49.996;8.238;2022-09-03T09:41:14;18.60;99.90
12967;DHT22;6548;49.996;8.238;2022-09-03T09:43:40;18.80;99.90
12967;DHT22;6548;49.996;8.238;2022-09-03T09:46:13;19.20;99.90
12967;DHT22;6548;49.996;8.238;2022-09-03T09:48:56;19.70;99.90
12967;DHT22;6548;49.996;8.238;2022-09-03T09:51:28;19.80;99.90
12967;DHT22;6548;49.996;8.238;2022-09-03T09:54:00;19.80;99.90
12967;DHT22;6548;49.996;8.238;2022-09-03T09:56:26;19.50;99.90
12967;DHT22;6548;49.996;8.238;2022-09-03T09:59:06;19.30;99.90
12967;DHT22;6548;49.996;8.238;2022-09-03T10:01:33;20.10;99.90
12967;DHT22;6548;49.996;8.238;2022-09-03T10:04:09;19.40;99.90
12967;DHT22;6548;49.996;8.238;2022-09-03T10:06:36;20.00;99.90
12967;DHT22;6548;49.996;8.238;2022-09-03T10:09:28;20.60;99.90
12967;DHT22;6548;49.996;8.238;2022-09-03T10:14:58;19.80;99.90
12967;DHT22;6548;49.996;8.238;2022-09-03T10:17:39;20.10;99.90
12967;DHT22;6548;49.996;8.238;2022-09-03T10:23:01;20.80;99.90
12967;DHT22;6548;49.996;8.238;2022-09-03T10:25:56;20.10;99.90
12967;DHT22;6548;49.996;8.238;2022-09-03T10:28:29;18.90;99.90
12967;DHT22;6548;49.996;8.238;2022-09-03T10:31:20;19.40;99.90
12967;DHT22;6548;49.996;8.238;2022-09-03T10:33:48;20.20;99.90
12967;DHT22;6548;49.996;8.238;2022-09-03T10:36:24;19.90;99.90
12967;DHT22;6548;49.996;8.238;2022-09-03T10:42:07;20.50;99.90
12967;DHT22;6548;49.996;8.238;2022-09-03T10:47:31;21.30;99.90
12967;DHT22;6548;49.996;8.238;2022-09-03T10:50:16;21.20;99.90
12967;DHT22;6548;49.996;8.238;2022-09-03T10:52:59;20.40;99.90
12967;DHT22;6548;49.996;8.238;2022-09-03T10:55:49;21.30;99.90
12967;DHT22;6548;49.996;8.238;2022-09-03T11:01:02;20.90;99.90
12967;DHT22;6548;49.996;8.238;2022-09-03T11:03:41;21.10;99.90
12967;DHT22;6548;49.996;8.238;2022-09-03T11:08:52;21.70;99.90
12967;DHT22;6548;49.996;8.238;2022-09-03T11:11:41;20.60;99.90
12967;DHT22;6548;49.996;8.238;2022-09-03T11:14:10;20.70;99.90
12967;DHT22;6548;49.996;8.238;2022-09-03T11:16:47;20.40;99.90
12967;DHT22;6548;49.996;8.238;2022-09-03T11:19:17;20.40;99.90
12967;DHT22;6548;49.996;8.238;2022-09-03T11:21:45;20.70;99.90
12967;DHT22;6548;49.996;8.238;2022-09-03T11:24:19;20.80;99.90
12967;DHT22;6548;49.996;8.238;2022-09-03T11:29:36;20.60;99.90
12967;DHT22;6548;49.996;8.238;2022-09-03T11:32:17;20.90;99.90
12967;DHT22;6548;49.996;8.238;2022-09-03T11:34:45;21.90;99.90
12967;DHT22;6548;49.996;8.238;2022-09-03T11:39:54;20.80;99.90
12967;DHT22;6548;49.996;8.238;2022-09-03T11:42:35;21.80;99.90
12967;DHT22;6548;49.996;8.238;2022-09-03T11:47:53;22.60;99.90
12967;DHT22;6548;49.996;8.238;2022-09-03T11:50:24;22.30;99.90
12967;DHT22;6548;49.996;8.238;2022-09-03T11:53:06;23.60;99.90
12967;DHT22;6548;49.996;8.238;2022-09-03T11:55:32;23.70;99.90
12967;DHT22;6548;49.996;8.238;2022-09-03T11:58:22;23.20;99.90
12967;DHT22;6548;49.996;8.238;2022-09-03T12:00:49;23.80;99.90
12967;DHT22;6548;49.996;8.238;2022-09-03T12:03:23;23.70;99.90
12967;DHT22;6548;49.996;8.238;2022-09-03T12:20:12;23.90;99.90
12967;DHT22;6548;49.996;8.238;2022-09-03T12:22:42;24.50;99.90
12967;DHT22;6548;49.996;8.238;2022-09-03T12:25:13;25.70;99.90
12967;DHT22;6548;49.996;8.238;2022-09-03T12:27:42;23.40;99.90
12967;DHT22;6548;49.996;8.238;2022-09-03T12:30:16;22.10;99.90
12967;DHT22;6548;49.996;8.238;2022-09-03T12:32:42;22.60;99.90
12967;DHT22;6548;49.996;8.238;2022-09-03T12:35:18;23.40;99.90
12967;DHT22;6548;49.996;8.238;2022-09-03T12:37:44;24.00;99.90
12967;DHT22;6548;49.996;8.238;2022-09-03T12:40:24;23.10;99.90
12967;DHT22;6548;49.996;8.238;2022-09-03T12:42:51;22.00;99.90
12967;DHT22;6548;49.996;8.238;2022-09-03T12:45:22;22.00;99.90
12967;DHT22;6548;49.996;8.238;2022-09-03T12:47:49;22.90;99.90
12967;DHT22;6548;49.996;8.238;2022-09-03T12:50:20;23.40;99.90
12967;DHT22;6548;49.996;8.238;2022-09-03T12:53:06;23.80;99.90
12967;DHT22;6548;49.996;8.238;2022-09-03T13:00:44;22.50;99.90
12967;DHT22;6548;49.996;8.238;2022-09-03T13:03:18;22.80;99.90
12967;DHT22;6548;49.996;8.238;2022-09-03T13:05:58;23.30;99.90
12967;DHT22;6548;49.996;8.238;2022-09-03T13:08:31;23.90;99.90
12967;DHT22;6548;49.996;8.238;2022-09-03T13:11:01;23.60;99.90
12967;DHT22;6548;49.996;8.238;2022-09-03T13:13:33;23.00;99.90
12967;DHT22;6548;49.996;8.238;2022-09-03T13:32:27;24.20;99.90
12967;DHT22;6548;49.996;8.238;2022-09-03T13:34:56;24.90;99.90
12967;DHT22;6548;49.996;8.238;2022-09-03T13:37:38;24.90;99.90
12967;DHT22;6548;49.996;8.238;2022-09-03T13:42:42;23.70;99.90
12967;DHT22;6548;49.996;8.238;2022-09-03T13:45:37;23.50;99.90
12967;DHT22;6548;49.996;8.238;2022-09-03T13:48:16;23.20;99.90
12967;DHT22;6548;49.996;8.238;2022-09-03T13:51:12;22.90;99.90
12967;DHT22;6548;49.996;8.238;2022-09-03T13:54:11;23.20;99.90
12967;DHT22;6548;49.996;8.238;2022-09-03T13:57:03;23.10;99.90
12967;DHT22;6548;49.996;8.238;2022-09-03T14:00:00;23.30;99.90
12967;DHT22;6548;49.996;8.238;2022-09-03T14:02:27;23.00;99.90
12967;DHT22;6548;49.996;8.238;2022-09-03T14:07:34;22.80;99.90
12967;DHT22;6548;49.996;8.238;2022-09-03T14:15:23;22.60;99.90
12967;DHT22;6548;49.996;8.238;2022-09-03T14:18:08;23.50;99.90
12967;DHT22;6548;49.996;8.238;2022-09-03T14:26:02;23.60;99.90
12967;DHT22;6548;49.996;8.238;2022-09-03T14:28:36;23.60;99.90
12967;DHT22;6548;49.996;8.238;2022-09-03T14:34:24;22.70;99.90
12967;DHT22;6548;49.996;8.238;2022-09-03T14:39:44;22.40;99.90
12967;DHT22;6548;49.996;8.238;2022-09-03T14:48:26;22.10;99.90
12967;DHT22;6548;49.996;8.238;2022-09-03T14:51:57;22.00;99.90
12967;DHT22;6548;49.996;8.238;2022-09-03T15:05:20;22.50;99.90
12967;DHT22;6548;49.996;8.238;2022-09-03T15:08:07;22.50;99.90
12967;DHT22;6548;49.996;8.238;2022-09-03T15:10:37;22.70;99.90
12967;DHT22;6548;49.996;8.238;2022-09-03T15:13:16;22.50;99.90
12967;DHT22;6548;49.996;8.238;2022-09-03T15:26:32;22.20;99.90
12967;DHT22;6548;49.996;8.238;2022-09-03T15:29:36;22.10;99.90
12967;DHT22;6548;49.996;8.238;2022-09-03T15:37:24;22.00;99.90
12967;DHT22;6548;49.996;8.238;2022-09-03T15:42:35;22.00;99.90
12967;DHT22;6548;49.996;8.238;2022-09-03T15:45:28;22.00;99.90
12967;DHT22;6548;49.996;8.238;2022-09-03T15:48:05;22.00;99.90
12967;DHT22;6548;49.996;8.238;2022-09-03T15:59:41;22.00;99.90
12967;DHT22;6548;49.996;8.238;2022-09-03T16:02:20;22.10;99.90
12967;DHT22;6548;49.996;8.238;2022-09-03T16:05:02;22.10;99.90
12967;DHT22;6548;49.996;8.238;2022-09-03T16:13:03;22.20;99.90
12967;DHT22;6548;49.996;8.238;2022-09-03T16:15:47;22.00;99.90
12967;DHT22;6548;49.996;8.238;2022-09-03T16:18:31;21.40;99.90
12967;DHT22;6548;49.996;8.238;2022-09-03T16:21:03;20.30;99.90
12967;DHT22;6548;49.996;8.238;2022-09-03T16:23:42;19.90;99.90
12967;DHT22;6548;49.996;8.238;2022-09-03T16:28:53;19.70;99.90
12967;DHT22;6548;49.996;8.238;2022-09-03T16:34:13;19.50;99.90
12967;DHT22;6548;49.996;8.238;2022-09-03T16:42:26;18.70;99.90
12967;DHT22;6548;49.996;8.238;2022-09-03T16:45:08;18.50;99.90
12967;DHT22;6548;49.996;8.238;2022-09-03T16:58:56;18.10;99.90
12967;DHT22;6548;49.996;8.238;2022-09-03T17:04:34;17.80;99.90
12967;DHT22;6548;49.996;8.238;2022-09-03T17:12:24;17.60;99.90
12967;DHT22;6548;49.996;8.238;2022-09-03T17:17:56;17.60;99.90
12967;DHT22;6548;49.996;8.238;2022-09-03T17:23:59;17.60;99.90
12967;DHT22;6548;49.996;8.238;2022-09-03T17:43:38;17.80;99.90
12967;DHT22;6548;49.996;8.238;2022-09-03T17:54:17;17.80;99.90
12967;DHT22;6548;49.996;8.238;2022-09-03T17:59:39;17.70;99.90
12967;DHT22;6548;49.996;8.238;2022-09-03T18:02:26;17.70;99.90
12967;DHT22;6548;49.996;8.238;2022-09-03T18:08:13;17.70;99.90
12967;DHT22;6548;49.996;8.238;2022-09-03T18:14:00;17.60;99.90
12967;DHT22;6548;49.996;8.238;2022-09-03T18:16:28;17.50;99.90
12967;DHT22;6548;49.996;8.238;2022-09-03T18:19:05;17.50;99.90
12967;DHT22;6548;49.996;8.238;2022-09-03T18:21:36;17.50;99.90
12967;DHT22;6548;49.996;8.238;2022-09-03T18:27:28;17.40;99.90
12967;DHT22;6548;49.996;8.238;2022-09-03T18:30:16;17.30;99.90
12967;DHT22;6548;49.996;8.238;2022-09-03T18:33:01;17.30;99.90
12967;DHT22;6548;49.996;8.238;2022-09-03T18:35:46;17.30;99.90
12967;DHT22;6548;49.996;8.238;2022-09-03T18:38:33;17.20;99.90
12967;DHT22;6548;49.996;8.238;2022-09-03T18:41:44;17.30;99.90
12967;DHT22;6548;49.996;8.238;2022-09-03T18:44:45;17.20;99.90
12967;DHT22;6548;49.996;8.238;2022-09-03T18:51:00;17.20;99.90
12967;DHT22;6548;49.996;8.238;2022-09-03T18:56:58;17.10;99.90
12967;DHT22;6548;49.996;8.238;2022-09-03T19:06:02;17.00;99.90
12967;DHT22;6548;49.996;8.238;2022-09-03T19:09:08;16.90;99.90
12967;DHT22;6548;49.996;8.238;2022-09-03T19:12:22;16.90;99.90
12967;DHT22;6548;49.996;8.238;2022-09-03T19:15:22;16.80;99.90
12967;DHT22;6548;49.996;8.238;2022-09-03T19:21:35;16.60;99.90
12967;DHT22;6548;49.996;8.238;2022-09-03T19:24:25;16.50;99.90
12967;DHT22;6548;49.996;8.238;2022-09-03T19:27:28;16.50;99.90
12967;DHT22;6548;49.996;8.238;2022-09-03T19:33:24;16.40;99.90
12967;DHT22;6548;49.996;8.238;2022-09-03T19:36:34;16.30;99.90
12967;DHT22;6548;49.996;8.238;2022-09-03T19:42:17;16.20;99.90
12967;DHT22;6548;49.996;8.238;2022-09-03T19:45:21;16.10;99.90
12967;DHT22;6548;49.996;8.238;2022-09-03T19:48:19;16.00;99.90
12967;DHT22;6548;49.996;8.238;2022-09-03T19:51:21;16.00;99.90
12967;DHT22;6548;49.996;8.238;2022-09-03T19:54:08;16.00;99.90
12967;DHT22;6548;49.996;8.238;2022-09-03T19:56:56;16.00;99.90
12967;DHT22;6548;49.996;8.238;2022-09-03T19:59:43;16.00;99.90
12967;DHT22;6548;49.996;8.238;2022-09-03T20:02:27;15.90;99.90
12967;DHT22;6548;49.996;8.238;2022-09-03T20:05:21;15.90;99.90
12967;DHT22;6548;49.996;8.238;2022-09-03T20:08:06;15.90;99.90
12967;DHT22;6548;49.996;8.238;2022-09-03T20:10:54;15.80;99.90
12967;DHT22;6548;49.996;8.238;2022-09-03T20:13:20;15.80;99.90
12967;DHT22;6548;49.996;8.238;2022-09-03T20:16:06;15.70;99.90
12967;DHT22;6548;49.996;8.238;2022-09-03T20:18:48;15.80;99.90
12967;DHT22;6548;49.996;8.238;2022-09-03T20:21:20;15.70;99.90
12967;DHT22;6548;49.996;8.238;2022-09-03T20:34:25;15.70;99.90
12967;DHT22;6548;49.996;8.238;2022-09-03T20:45:09;15.60;99.90
12967;DHT22;6548;49.996;8.238;2022-09-03T20:47:54;15.70;99.90
12967;DHT22;6548;49.996;8.238;2022-09-03T20:50:30;15.70;99.90
12967;DHT22;6548;49.996;8.238;2022-09-03T20:53:23;15.70;99.90
12967;DHT22;6548;49.996;8.238;2022-09-03T20:55:56;15.70;99.90
12967;DHT22;6548;49.996;8.238;2022-09-03T21:06:40;15.70;99.90
12967;DHT22;6548;49.996;8.238;2022-09-03T21:19:42;15.50;99.90
12967;DHT22;6548;49.996;8.238;2022-09-03T21:25:04;15.50;99.90
12967;DHT22;6548;49.996;8.238;2022-09-03T21:27:42;15.50;99.90
12967;DHT22;6548;49.996;8.238;2022-09-03T21:30:13;15.50;99.90
12967;DHT22;6548;49.996;8.238;2022-09-03T21:35:24;15.40;99.90
12967;DHT22;6548;49.996;8.238;2022-09-03T21:37:58;15.30;99.90
12967;DHT22;6548;49.996;8.238;2022-09-03T21:40:27;15.30;99.90
12967;DHT22;6548;49.996;8.238;2022-09-03T21:42:56;15.30;99.90
12967;DHT22;6548;49.996;8.238;2022-09-03T21:45:43;15.20;99.90
12967;DHT22;6548;49.996;8.238;2022-09-03T21:48:19;15.20;99.90
12967;DHT22;6548;49.996;8.238;2022-09-03T21:50:48;15.30;99.90
12967;DHT22;6548;49.996;8.238;2022-09-03T21:53:24;15.30;99.90
12967;DHT22;6548;49.996;8.238;2022-09-03T21:58:45;15.30;99.90
12967;DHT22;6548;49.996;8.238;2022-09-03T22:01:34;15.20;99.90
12967;DHT22;6548;49.996;8.238;2022-09-03T22:04:04;15.10;99.90
12967;DHT22;6548;49.996;8.238;2022-09-03T22:09:12;15.20;99.90
12967;DHT22;6548;49.996;8.238;2022-09-03T22:14:45;15.10;99.90
12967;DHT22;6548;49.996;8.238;2022-09-03T22:17:46;15.00;99.90
12967;DHT22;6548;49.996;8.238;2022-09-03T22:20:14;15.10;99.90
12967;DHT22;6548;49.996;8.238;2022-09-03T22:22:51;15.10;99.90
12967;DHT22;6548;49.996;8.238;2022-09-03T22:27:57;15.00;99.90
12967;DHT22;6548;49.996;8.238;2022-09-03T22:30:37;15.00;99.90
12967;DHT22;6548;49.996;8.238;2022-09-03T22:36:12;15.10;99.90
12967;DHT22;6548;49.996;8.238;2022-09-03T22:38:52;15.10;99.90
12967;DHT22;6548;49.996;8.238;2022-09-03T22:49:53;15.00;99.90
12967;DHT22;6548;49.996;8.238;2022-09-03T22:52:50;14.90;99.90
12967;DHT22;6548;49.996;8.238;2022-09-03T22:55:19;14.90;99.90
12967;DHT22;6548;49.996;8.238;2022-09-03T22:58:07;14.80;99.90
12967;DHT22;6548;49.996;8.238;2022-09-03T23:00:58;14.80;99.90
12967;DHT22;6548;49.996;8.238;2022-09-03T23:03:42;14.80;99.90
12967;DHT22;6548;49.996;8.238;2022-09-03T23:06:16;14.80;99.90
12967;DHT22;6548;49.996;8.238;2022-09-03T23:08:50;14.80;99.90
12967;DHT22;6548;49.996;8.238;2022-09-03T23:11:51;14.90;99.90
12967;DHT22;6548;49.996;8.238;2022-09-03T23:14:42;14.80;99.90
12967;DHT22;6548;49.996;8.238;2022-09-03T23:17:18;14.80;99.90
12967;DHT22;6548;49.996;8.238;2022-09-03T23:22:43;14.70;99.90
12967;DHT22;6548;49.996;8.238;2022-09-03T23:25:21;14.60;99.90
12967;DHT22;6548;49.996;8.238;2022-09-03T23:30:13;14.50;99.90
12967;DHT22;6548;49.996;8.238;2022-09-03T23:32:38;14.50;99.90
12967;DHT22;6548;49.996;8.238;2022-09-03T23:35:13;14.60;99.90
12967;DHT22;6548;49.996;8.238;2022-09-03T23:40:32;14.60;99.90
